Time;durP1;ratioP1;P1;durP2;ratioP2;P2;SDS_P1;SDS_P2;PMS_P1;PMS_P2;Temp;Humidity;BMP_temperature;BMP_pressure;BME280_temperature;BME280_humidity;BME280_pressure;Samples;Min_cycle;Max_cycle;Signal;HPM_P1;HPM_P2
2022/01/10 00:00:37;;;;;;;56.15;49.75;;;;;;;-145.93;100.00;59239.47;4932848;29;20118;-83
2022/01/10 00:03:03;;;;;;;65.57;50.53;;;;;;;-145.93;100.00;59239.47;4954795;29;20031;-80
2022/01/10 00:05:29;;;;;;;;;;;;;;;-145.93;100.00;59239.47;4962276;29;20091;-82
2022/01/10 00:07:57;;;;;;;57.17;49.53;;;;;;;-145.93;100.00;59239.47;4952645;28;19926;-80
2022/01/10 00:10:22;;;;;;;57.63;49.75;;;;;;;-145.93;100.00;59239.47;4950619;28;20082;-81
2022/01/10 00:12:48;;;;;;;59.60;50.00;;;;;;;-145.93;100.00;59239.47;4929975;29;20083;-83
2022/01/10 00:15:16;;;;;;;56.20;50.08;;;;;;;-145.93;100.00;59239.47;4947993;29;20106;-83
2022/01/10 00:17:45;;;;;;;57.72;50.17;;;;;;;-145.93;100.00;59239.47;4926762;29;20027;-83
2022/01/10 00:20:13;;;;;;;63.63;50.75;;;;;;;-145.93;100.00;59239.47;4958542;28;20031;-83
2022/01/10 00:22:40;;;;;;;55.78;49.67;;;;;;;-145.93;100.00;59239.47;4938651;29;20079;-81
2022/01/10 00:25:06;;;;;;;63.75;51.35;;;;;;;-145.93;100.00;59239.47;4938569;28;20073;-83
2022/01/10 00:27:32;;;;;;;58.47;52.10;;;;;;;-145.93;100.00;59239.47;4931057;29;20032;-83
2022/01/10 00:29:57;;;;;;;59.23;51.07;;;;;;;-145.93;100.00;59239.47;4929765;29;20252;-81
2022/01/10 00:32:23;;;;;;;56.33;49.80;;;;;;;-145.93;100.00;59239.47;4947334;29;20453;-81
2022/01/10 00:34:49;;;;;;;55.95;50.10;;;;;;;-145.93;100.00;59239.47;4932748;29;20023;-84
2022/01/10 00:37:15;;;;;;;59.60;49.92;;;;;;;-145.93;100.00;59239.47;4934430;29;20062;-81
2022/01/10 00:39:43;;;;;;;56.33;49.40;;;;;;;-145.93;100.00;59239.47;4949421;29;20026;-83
2022/01/10 00:42:08;;;;;;;55.03;49.50;;;;;;;-145.93;100.00;59239.47;4940114;29;20236;-84
2022/01/10 00:44:38;;;;;;;55.80;49.47;;;;;;;-145.93;100.00;59239.47;4930505;28;20485;-83
2022/01/10 00:47:06;;;;;;;55.65;49.70;;;;;;;-145.93;100.00;59239.47;4930746;29;20031;-83
2022/01/10 00:49:32;;;;;;;55.55;49.70;;;;;;;-145.93;100.00;59239.47;4931578;29;20034;-83
2022/01/10 00:51:57;;;;;;;63.30;50.90;;;;;;;-145.93;100.00;59239.47;4952254;28;20038;-84
2022/01/10 00:54:23;;;;;;;75.97;52.97;;;;;;;-145.93;100.00;59239.47;4933065;28;20031;-83
2022/01/10 00:56:49;;;;;;;68.25;52.50;;;;;;;-145.93;100.00;59239.47;4931310;29;20038;-82
2022/01/10 00:59:14;;;;;;;82.47;53.47;;;;;;;-145.93;100.00;59239.47;4937915;29;20023;-83
2022/01/10 01:01:40;;;;;;;58.00;50.07;;;;;;;-145.93;100.00;59239.47;4960558;29;20099;-84
2022/01/10 01:04:06;;;;;;;71.75;51.78;;;;;;;-145.93;100.00;59239.47;4945425;29;20031;-82
2022/01/10 01:06:31;;;;;;;79.47;54.20;;;;;;;-145.93;100.00;59239.47;4955266;29;20059;-80
2022/01/10 01:09:01;;;;;;;85.90;55.10;;;;;;;-145.93;100.00;59239.47;4940987;29;20066;-82
2022/01/10 01:11:54;;;;;;;75.07;53.15;;;;;;;-145.93;100.00;59239.47;4949292;29;20054;-83
2022/01/10 01:14:24;;;;;;;73.68;52.92;;;;;;;-145.93;100.00;59239.47;4949120;28;20027;-82
2022/01/10 01:17:08;;;;;;;80.55;54.33;;;;;;;-145.93;100.00;59239.47;4963476;23;20059;-88
2022/01/10 01:20:06;;;;;;;94.43;56.25;;;;;;;-145.93;100.00;59239.47;4952177;28;20019;-85
2022/01/10 01:25:15;;;;;;;62.17;51.20;;;;;;;-145.93;100.00;59239.47;4966133;28;20030;-87
2022/01/10 01:27:42;;;;;;;61.20;50.47;;;;;;;-145.93;100.00;59239.47;4945949;28;20023;-86
2022/01/10 01:30:08;;;;;;;;;;;;;;;-145.93;100.00;59239.47;4947379;28;20055;-85
2022/01/10 01:32:33;;;;;;;63.10;51.45;;;;;;;-145.93;100.00;59239.47;4944519;29;19934;-87
2022/01/10 01:35:04;;;;;;;58.47;51.00;;;;;;;-145.93;100.00;59239.47;4947136;28;20030;-86
2022/01/10 01:37:30;;;;;;;58.80;52.50;;;;;;;-145.93;100.00;59239.47;4946861;28;20037;-88
2022/01/10 01:39:56;;;;;;;71.67;52.60;;;;;;;-145.93;100.00;59239.47;4947420;28;20015;-87
2022/01/10 01:44:59;;;;;;;61.17;53.05;;;;;;;-145.93;100.00;59239.47;4965773;28;20015;-90
2022/01/10 01:47:25;;;;;;;56.10;50.50;;;;;;;-145.93;100.00;59239.47;4946807;29;20046;-90
2022/01/10 01:49:50;;;;;;;58.30;50.73;;;;;;;-145.93;100.00;59239.47;4943303;29;20019;-90
2022/01/10 01:52:16;;;;;;;63.50;50.77;;;;;;;-145.93;100.00;59239.47;4947141;28;20016;-91
2022/01/10 01:54:41;;;;;;;58.60;50.47;;;;;;;-145.93;100.00;59239.47;4949782;28;20095;-89
2022/01/10 01:57:07;;;;;;;57.70;51.23;;;;;;;-145.93;100.00;59239.47;4950228;28;20062;-91
2022/01/10 01:59:34;;;;;;;;;;;;;;;-145.93;100.00;59239.47;4939800;28;20030;-90
2022/01/10 02:02:00;;;;;;;59.57;50.73;;;;;;;-145.93;100.00;59239.47;4944681;29;19977;-89
2022/01/10 02:04:25;;;;;;;63.37;51.63;;;;;;;-145.93;100.00;59239.47;4944190;28;20257;-89
2022/01/10 02:06:50;;;;;;;56.33;50.30;;;;;;;-145.93;100.00;59239.47;4945219;29;20055;-89
2022/01/10 02:09:16;;;;;;;63.50;50.57;;;;;;;-145.93;100.00;59239.47;4941471;29;20114;-89
2022/01/10 02:11:42;;;;;;;72.70;51.22;;;;;;;-145.93;100.00;59239.47;4943736;29;20054;-91
2022/01/10 02:14:08;;;;;;;57.10;50.00;;;;;;;-145.93;100.00;59239.47;4944882;29;20035;-89
2022/01/10 02:16:42;;;;;;;65.90;51.75;;;;;;;-145.93;100.00;59239.47;4941342;29;20185;-89
2022/01/10 02:19:07;;;;;;;59.50;51.65;;;;;;;-145.93;100.00;59239.47;4933558;29;20055;-89
2022/01/10 02:21:33;;;;;;;57.33;51.07;;;;;;;-145.93;100.00;59239.47;4931654;29;20036;-88
2022/01/10 02:23:59;;;;;;;57.53;51.25;;;;;;;-145.93;100.00;59239.47;4915003;29;20273;-88
2022/01/10 02:26:24;;;;;;;62.33;51.90;;;;;;;-145.93;100.00;59239.47;4930999;29;20055;-88
2022/01/10 02:28:49;;;;;;;56.30;50.13;;;;;;;-145.93;100.00;59239.47;4933822;29;20030;-88
2022/01/10 02:31:15;;;;;;;57.17;50.60;;;;;;;-145.93;100.00;59239.47;4934553;29;20496;-89
2022/01/10 02:33:40;;;;;;;57.73;51.50;;;;;;;-145.93;100.00;59239.47;4934145;29;20034;-87
2022/01/10 02:36:20;;;;;;;63.37;52.00;;;;;;;-145.93;100.00;59239.47;4934359;29;20043;-89
2022/01/10 02:38:51;;;;;;;66.55;52.60;;;;;;;-145.93;100.00;59239.47;4930969;29;20035;-89
2022/01/10 02:41:36;;;;;;;57.05;50.90;;;;;;;-145.93;100.00;59239.47;4930098;29;20033;-89
2022/01/10 02:44:05;;;;;;;58.38;51.25;;;;;;;-145.93;100.00;59239.47;4930439;29;20034;-89
2022/01/10 02:46:33;;;;;;;58.97;52.55;;;;;;;-145.93;100.00;59239.47;4929480;29;20507;-87
2022/01/10 02:48:58;;;;;;;59.58;50.85;;;;;;;-145.93;100.00;59239.47;4927461;29;20054;-88
2022/01/10 02:51:23;;;;;;;60.80;50.60;;;;;;;-145.93;100.00;59239.47;4927748;29;20062;-88
2022/01/10 02:53:49;;;;;;;58.90;52.07;;;;;;;-145.93;100.00;59239.47;4931417;29;20067;-88
2022/01/10 02:56:14;;;;;;;57.83;51.67;;;;;;;-145.93;100.00;59239.47;4935985;29;20521;-90
2022/01/10 02:58:40;;;;;;;61.80;51.43;;;;;;;-145.93;100.00;59239.47;4935735;29;20503;-88
2022/01/10 03:01:05;;;;;;;58.10;51.00;;;;;;;-145.93;100.00;59239.47;4928636;29;20448;-89
2022/01/10 03:03:31;;;;;;;63.00;51.50;;;;;;;-145.93;100.00;59239.47;4926951;29;20397;-88
2022/01/10 03:05:57;;;;;;;60.17;52.03;;;;;;;-145.93;100.00;59239.47;4928040;29;20477;-88
2022/01/10 03:08:24;;;;;;;57.85;51.90;;;;;;;-145.93;100.00;59239.47;4928997;29;20046;-87
2022/01/10 03:10:49;;;;;;;58.47;52.20;;;;;;;-145.93;100.00;59239.47;4941185;29;20049;-87
2022/01/10 03:13:15;;;;;;;60.53;50.80;;;;;;;-145.93;100.00;59239.47;4944449;29;20014;-87
2022/01/10 03:15:40;;;;;;;62.97;50.83;;;;;;;-145.93;100.00;59239.47;4944464;29;20020;-87
2022/01/10 03:18:05;;;;;;;58.77;51.47;;;;;;;-145.93;100.00;59239.47;4930546;29;20462;-86
2022/01/10 03:20:31;;;;;;;57.70;51.77;;;;;;;-145.93;100.00;59239.47;4928661;29;20028;-87
2022/01/10 03:22:56;;;;;;;56.77;50.50;;;;;;;-145.93;100.00;59239.47;4928765;29;20389;-88
2022/01/10 03:25:21;;;;;;;59.20;50.87;;;;;;;-145.93;100.00;59239.47;4928380;29;20568;-89
2022/01/10 03:27:47;;;;;;;56.30;50.37;;;;;;;-145.93;100.00;59239.47;4927612;29;20078;-88
2022/01/10 03:30:15;;;;;;;59.53;53.13;;;;;;;-145.93;100.00;59239.47;4923207;29;20083;-89
2022/01/10 03:32:41;;;;;;;56.97;50.92;;;;;;;-145.93;100.00;59239.47;4924670;29;20023;-89
2022/01/10 03:35:06;;;;;;;55.53;49.67;;;;;;;-145.93;100.00;59239.47;4929332;29;20031;-89
2022/01/10 03:37:32;;;;;;;57.33;51.43;;;;;;;-145.93;100.00;59239.47;4932875;29;20485;-89
2022/01/10 03:39:57;;;;;;;58.17;51.90;;;;;;;-145.93;100.00;59239.47;4944783;29;20036;-90
2022/01/10 03:42:25;;;;;;;61.30;51.13;;;;;;;-145.93;100.00;59239.47;4934882;29;20024;-91
2022/01/10 03:44:51;;;;;;;56.60;51.03;;;;;;;-145.93;100.00;59239.47;4914619;29;20118;-89
2022/01/10 03:47:18;;;;;;;57.53;51.37;;;;;;;-145.93;100.00;59239.47;4936184;29;20026;-89
2022/01/10 03:49:44;;;;;;;58.00;52.03;;;;;;;-145.93;100.00;59239.47;4937090;29;20039;-90
2022/01/10 03:52:09;;;;;;;61.70;52.40;;;;;;;-145.93;100.00;59239.47;4943863;29;20046;-89
2022/01/10 03:54:34;;;;;;;59.73;53.30;;;;;;;-145.93;100.00;59239.47;4943831;29;20030;-90
2022/01/10 03:56:59;;;;;;;69.77;54.30;;;;;;;-145.93;100.00;59239.47;4943986;28;20023;-92
2022/01/10 03:59:25;;;;;;;62.17;54.83;;;;;;;-145.93;100.00;59239.47;4942762;29;20079;-91
2022/01/10 04:01:51;;;;;;;60.47;52.67;;;;;;;-145.93;100.00;59239.47;4944887;29;20417;-89
2022/01/10 04:04:17;;;;;;;60.95;53.92;;;;;;;-145.93;100.00;59239.47;4942408;29;20012;-89
2022/01/10 04:06:43;;;;;;;75.32;56.63;;;;;;;-145.93;100.00;59239.47;4944125;28;20042;-90
2022/01/10 04:09:08;;;;;;;60.07;52.73;;;;;;;-145.93;100.00;59239.47;4941867;29;20012;-89
2022/01/10 04:11:34;;;;;;;61.20;51.93;;;;;;;-145.93;100.00;59239.47;4944653;29;20031;-90
2022/01/10 04:13:59;;;;;;;60.77;54.10;;;;;;;-145.93;100.00;59239.47;4942779;29;20023;-90
2022/01/10 04:16:24;;;;;;;68.43;52.77;;;;;;;-145.93;100.00;59239.47;4944238;29;20030;-90
2022/01/10 04:18:50;;;;;;;58.57;52.23;;;;;;;-145.93;100.00;59239.47;4945309;29;20410;-90
2022/01/10 04:21:15;;;;;;;59.43;53.10;;;;;;;-145.93;100.00;59239.47;4941183;29;20055;-90
2022/01/10 04:23:41;;;;;;;57.37;51.60;;;;;;;-145.93;100.00;59239.47;4938018;29;20024;-90
2022/01/10 04:26:12;;;;;;;57.63;51.50;;;;;;;-145.93;100.00;59239.47;4930437;29;20052;-89
2022/01/10 04:28:37;;;;;;;57.13;51.30;;;;;;;-145.93;100.00;59239.47;4932053;29;20016;-89
2022/01/10 04:31:04;;;;;;;63.20;52.33;;;;;;;-145.93;100.00;59239.47;4936732;28;20019;-90
2022/01/10 04:33:45;;;;;;;57.30;51.60;;;;;;;-145.93;100.00;59239.47;4949729;28;20047;-89
2022/01/10 04:36:11;;;;;;;59.03;52.75;;;;;;;-145.93;100.00;59239.47;4945694;29;20253;-88
2022/01/10 04:38:37;;;;;;;57.50;51.75;;;;;;;-145.93;100.00;59239.47;4964333;28;20023;-88
2022/01/10 04:41:03;;;;;;;57.95;52.22;;;;;;;-145.93;100.00;59239.47;4945730;29;20031;-87
2022/01/10 04:43:28;;;;;;;58.30;52.22;;;;;;;-145.93;100.00;59239.47;4933392;28;20031;-86
2022/01/10 04:45:54;;;;;;;57.87;51.67;;;;;;;-145.93;100.00;59239.47;4947231;29;20027;-87
2022/01/10 04:48:19;;;;;;;57.67;51.73;;;;;;;-145.93;100.00;59239.47;4933141;29;20019;-88
2022/01/10 04:51:32;;;;;;;56.63;51.30;;;;;;;-145.93;100.00;59239.47;4930693;29;20114;-88
2022/01/10 04:53:31;;;;;;;56.53;50.85;;;;;;;-145.93;100.00;59239.47;4940717;29;20043;-88
2022/01/10 04:55:56;;;;;;;56.80;51.13;;;;;;;-145.93;100.00;59239.47;4951438;29;20485;-89
2022/01/10 04:58:22;;;;;;;56.37;51.03;;;;;;;-145.93;100.00;59239.47;4935385;29;20029;-88
2022/01/10 05:00:51;;;;;;;56.40;51.03;;;;;;;-145.93;100.00;59239.47;4935870;29;20087;-87
2022/01/10 05:03:17;;;;;;;57.20;51.70;;;;;;;-145.93;100.00;59239.47;4935241;29;20047;-88
2022/01/10 05:05:43;;;;;;;57.25;51.65;;;;;;;-145.93;100.00;59239.47;4937030;29;20031;-88
2022/01/10 05:08:09;;;;;;;55.58;50.35;;;;;;;-145.93;100.00;59239.47;4928746;29;20117;-88
2022/01/10 05:10:35;;;;;;;;;;;;;;;-145.93;100.00;59239.47;4931656;29;20022;-87
2022/01/10 05:13:00;;;;;;;55.70;50.53;;;;;;;-145.93;100.00;59239.47;4934667;29;19907;-87
2022/01/10 05:15:25;;;;;;;56.43;50.90;;;;;;;-145.93;100.00;59239.47;4952941;28;20027;-87
2022/01/10 05:17:51;;;;;;;56.40;51.00;;;;;;;-145.93;100.00;59239.47;4950125;28;20046;-88
2022/01/10 05:20:16;;;;;;;57.67;52.00;;;;;;;-145.93;100.00;59239.47;4945121;29;20036;-87
2022/01/10 05:22:41;;;;;;;58.77;52.40;;;;;;;-145.93;100.00;59239.47;4947939;28;20095;-88
2022/01/10 05:25:07;;;;;;;59.17;52.70;;;;;;;-145.93;100.00;59239.47;4944420;29;20099;-89
2022/01/10 05:27:32;;;;;;;57.13;51.30;;;;;;;-145.93;100.00;59239.47;4940225;29;20132;-90
2022/01/10 05:29:57;;;;;;;57.30;51.47;;;;;;;-145.93;100.00;59239.47;4941937;29;20011;-88
2022/01/10 05:32:23;;;;;;;59.43;53.37;;;;;;;-145.93;100.00;59239.47;4945600;29;20269;-89
2022/01/10 05:34:48;;;;;;;58.90;52.67;;;;;;;-145.93;100.00;59239.47;4946582;28;20012;-88
2022/01/10 05:37:14;;;;;;;57.77;52.20;;;;;;;-145.93;100.00;59239.47;4948738;29;20043;-89
2022/01/10 05:39:39;;;;;;;57.83;52.10;;;;;;;-145.93;100.00;59239.47;4945364;29;20011;-87
2022/01/10 05:42:04;;;;;;;57.73;52.03;;;;;;;-145.93;100.00;59239.47;4946986;29;20043;-89
2022/01/10 05:44:30;;;;;;;58.70;52.77;;;;;;;-145.93;100.00;59239.47;4945261;28;20047;-89
2022/01/10 05:46:56;;;;;;;59.83;53.53;;;;;;;-145.93;100.00;59239.47;4944418;28;20019;-88
2022/01/10 05:49:27;;;;;;;58.20;52.50;;;;;;;-145.93;100.00;59239.47;4947407;28;20023;-90
2022/01/10 05:51:52;;;;;;;59.00;53.05;;;;;;;-145.93;100.00;59239.47;4947534;28;20103;-89
2022/01/10 05:54:17;;;;;;;57.97;52.23;;;;;;;-145.93;100.00;59239.47;4939307;29;20042;-90
2022/01/10 05:56:43;;;;;;;57.23;51.70;;;;;;;-145.93;100.00;59239.47;4923590;29;20055;-89
2022/01/10 05:59:08;;;;;;;60.53;53.73;;;;;;;-145.93;100.00;59239.47;4933187;29;20083;-89
2022/01/10 06:01:34;;;;;;;58.47;52.60;;;;;;;-145.93;100.00;59239.47;4933512;29;20031;-90
2022/01/10 06:03:59;;;;;;;58.40;52.37;;;;;;;-145.93;100.00;59239.47;4933866;29;20501;-90
2022/01/10 06:06:26;;;;;;;57.43;51.33;;;;;;;-145.93;100.00;59239.47;4936786;29;20054;-90
2022/01/10 06:08:53;;;;;;;56.60;51.42;;;;;;;-145.93;100.00;59239.47;4938543;29;20023;-92
2022/01/10 06:11:18;;;;;;;57.95;52.40;;;;;;;-145.93;100.00;59239.47;4942949;29;20039;-91
2022/01/10 06:13:44;;;;;;;58.77;52.57;;;;;;;-145.93;100.00;59239.47;4927286;29;20032;-88
2022/01/10 06:16:09;;;;;;;59.93;53.63;;;;;;;-145.93;100.00;59239.47;4942711;28;20090;-89
2022/01/10 06:18:35;;;;;;;59.57;53.47;;;;;;;-145.93;100.00;59239.47;4941262;29;20050;-91
2022/01/10 06:21:00;;;;;;;60.20;54.08;;;;;;;-145.93;100.00;59239.47;4947934;29;20398;-89
2022/01/10 06:23:26;;;;;;;61.00;54.63;;;;;;;-145.93;100.00;59239.47;4916070;29;20032;-91
2022/01/10 06:25:51;;;;;;;59.20;53.37;;;;;;;-145.93;100.00;59239.47;4918425;29;20035;-90
2022/01/10 06:28:18;;;;;;;61.00;54.63;;;;;;;-145.93;100.00;59239.47;4930737;29;20054;-90
2022/01/10 06:30:43;;;;;;;59.38;53.25;;;;;;;-145.93;100.00;59239.47;4922024;28;20026;-91
2022/01/10 06:33:08;;;;;;;60.50;54.20;;;;;;;-145.93;100.00;59239.47;4933079;29;20021;-89
2022/01/10 06:35:34;;;;;;;60.73;54.63;;;;;;;-145.93;100.00;59239.47;4937108;28;20027;-91
2022/01/10 06:37:59;;;;;;;60.33;54.13;;;;;;;-145.93;100.00;59239.47;4925392;29;20028;-89
2022/01/10 06:40:25;;;;;;;60.43;53.87;;;;;;;-145.93;100.00;59239.47;4943541;29;20090;-90
2022/01/10 06:42:50;;;;;;;59.87;53.77;;;;;;;-145.93;100.00;59239.47;4938766;28;20067;-85
2022/01/10 06:45:16;;;;;;;65.57;56.42;;;;;;;-145.93;100.00;59239.47;4945233;28;20054;-89
2022/01/10 06:47:41;;;;;;;60.73;54.27;;;;;;;-145.93;100.00;59239.47;4945442;28;20020;-88
2022/01/10 06:50:07;;;;;;;62.57;55.73;;;;;;;-145.93;100.00;59239.47;4944968;28;20044;-87
2022/01/10 06:52:33;;;;;;;63.30;55.53;;;;;;;-145.93;100.00;59239.47;4931382;29;20059;-89
2022/01/10 06:54:59;;;;;;;60.22;53.95;;;;;;;-145.93;100.00;59239.47;4924315;29;20039;-89
2022/01/10 06:57:25;;;;;;;61.50;55.07;;;;;;;-145.93;100.00;59239.47;4920609;29;20020;-88
2022/01/10 06:59:50;;;;;;;61.77;55.10;;;;;;;-145.93;100.00;59239.47;4932090;29;20276;-89
2022/01/10 07:02:16;;;;;;;59.80;53.77;;;;;;;-145.93;100.00;59239.47;4934293;29;20023;-88
2022/01/10 07:04:41;;;;;;;63.30;55.57;;;;;;;-145.93;100.00;59239.47;4931213;29;20075;-87
2022/01/10 07:07:06;;;;;;;63.03;56.17;;;;;;;-145.93;100.00;59239.47;4918293;29;20114;-90
2022/01/10 07:09:32;;;;;;;60.33;54.17;;;;;;;-145.93;100.00;59239.47;4930038;29;20035;-87
2022/01/10 07:11:58;;;;;;;61.15;54.53;;;;;;;-145.93;100.00;59239.47;4928735;29;20023;-90
2022/01/10 07:14:23;;;;;;;60.87;54.30;;;;;;;-145.93;100.00;59239.47;4938202;29;20031;-89
2022/01/10 07:16:50;;;;;;;60.30;53.83;;;;;;;-145.93;100.00;59239.47;4929350;29;20031;-88
2022/01/10 07:19:15;;;;;;;;;;;;;;;-145.93;100.00;59239.47;4932555;29;20029;-88
2022/01/10 07:21:53;;;;;;;60.72;54.30;;;;;;;-145.93;100.00;59239.47;4938759;29;19978;-90
2022/01/10 07:24:20;;;;;;;71.10;56.65;;;;;;;-145.93;100.00;59239.47;4946739;23;20098;-80
2022/01/10 07:26:45;;;;;;;60.38;54.03;;;;;;;-145.93;100.00;59239.47;4929305;29;20091;-84
2022/01/10 07:29:13;;;;;;;65.73;55.23;;;;;;;-145.93;100.00;59239.47;4933971;29;20031;-85
2022/01/10 07:31:39;;;;;;;62.88;54.90;;;;;;;-145.93;100.00;59239.47;4930994;29;20015;-82
2022/01/10 07:34:05;;;;;;;62.75;55.30;;;;;;;-145.93;100.00;59239.47;4933539;29;20015;-83
2022/01/10 07:36:31;;;;;;;61.67;55.08;;;;;;;-145.93;100.00;59239.47;4933617;29;20098;-83
2022/01/10 07:39:03;;;;;;;61.93;54.83;;;;;;;-145.93;100.00;59239.47;4936455;29;20032;-83
2022/01/10 07:41:29;;;;;;;69.47;56.60;;;;;;;-145.93;100.00;59239.47;4940452;29;20024;-88
2022/01/10 07:43:56;;;;;;;69.82;57.38;;;;;;;-145.93;100.00;59239.47;4942159;29;20027;-89
2022/01/10 07:46:22;;;;;;;63.40;56.42;;;;;;;-145.93;100.00;59239.47;4942317;29;20027;-89
2022/01/10 07:48:48;;;;;;;64.97;57.47;;;;;;;-145.93;100.00;59239.47;4927322;29;20024;-87
2022/01/10 07:51:13;;;;;;;64.75;57.25;;;;;;;-145.93;100.00;59239.47;4928071;29;20052;-88
2022/01/10 07:53:40;;;;;;;71.87;59.03;;;;;;;-145.93;100.00;59239.47;4927778;29;20031;-75
2022/01/10 07:56:06;;;;;;;71.13;57.40;;;;;;;-145.93;100.00;59239.47;4932444;29;20028;-80
2022/01/10 07:58:35;;;;;;;111.75;65.65;;;;;;;-145.93;100.00;59239.47;4924464;29;20051;-83
2022/01/10 08:01:00;;;;;;;113.13;65.38;;;;;;;-145.93;100.00;59239.47;4941153;29;20040;-82
2022/01/10 08:03:26;;;;;;;92.47;61.27;;;;;;;-145.93;100.00;59239.47;4942754;29;20051;-86
2022/01/10 08:05:51;;;;;;;65.30;57.67;;;;;;;-145.93;100.00;59239.47;4943579;29;20040;-86
2022/01/10 08:08:17;;;;;;;64.53;56.27;;;;;;;-145.93;100.00;59239.47;4927246;29;20083;-87
2022/01/10 08:10:43;;;;;;;71.35;58.50;;;;;;;-145.93;100.00;59239.47;4925165;29;20034;-88
2022/01/10 08:13:08;;;;;;;69.10;58.50;;;;;;;-145.93;100.00;59239.47;4921256;29;20031;-87
2022/01/10 08:15:34;;;;;;;64.23;56.73;;;;;;;-145.93;100.00;59239.47;4935029;29;20156;-86
2022/01/10 08:18:02;;;;;;;67.75;57.72;;;;;;;-145.93;100.00;59239.47;4934918;29;20028;-87
2022/01/10 08:20:28;;;;;;;67.75;57.30;;;;;;;-145.93;100.00;59239.47;4935542;29;20032;-88
2022/01/10 08:22:56;;;;;;;66.00;56.37;;;;;;;-145.93;100.00;59239.47;4919796;29;20032;-86
2022/01/10 08:25:23;;;;;;;63.95;56.42;;;;;;;-145.93;100.00;59239.47;4921796;29;20090;-83
2022/01/10 08:27:51;;;;;;;69.60;58.00;;;;;;;-145.93;100.00;59239.47;4929511;29;20028;-83
2022/01/10 08:30:17;;;;;;;67.85;58.00;;;;;;;-145.93;100.00;59239.47;4913568;29;20043;-86
2022/01/10 08:32:44;;;;;;;108.63;65.82;;;;;;;-145.93;100.00;59239.47;4904605;29;20039;-80
2022/01/10 08:35:10;;;;;;;84.53;61.90;;;;;;;-145.93;100.00;59239.47;4927726;29;20056;-80
2022/01/10 08:37:35;;;;;;;73.75;58.67;;;;;;;-145.93;100.00;59239.47;4911005;29;20004;-85
2022/01/10 08:40:00;;;;;;;79.27;58.57;;;;;;;-145.93;100.00;59239.47;4918798;29;20042;-85
2022/01/10 08:42:26;;;;;;;72.80;58.60;;;;;;;-145.93;100.00;59239.47;4939020;29;20434;-85
2022/01/10 08:44:53;;;;;;;74.83;58.57;;;;;;;-145.93;100.00;59239.47;4934623;29;20071;-85
2022/01/10 08:47:21;;;;;;;68.65;57.15;;;;;;;-145.93;100.00;59239.47;4933688;29;20048;-83
2022/01/10 08:49:47;;;;;;;72.10;58.45;;;;;;;-145.93;100.00;59239.47;4919444;29;20031;-84
2022/01/10 08:52:13;;;;;;;72.60;58.03;;;;;;;-145.93;100.00;59239.47;4932697;29;20106;-83
2022/01/10 08:54:38;;;;;;;75.20;59.03;;;;;;;-145.93;100.00;59239.47;4931176;29;20039;-83
2022/01/10 08:57:07;;;;;;;69.40;58.03;;;;;;;-145.93;100.00;59239.47;4936267;29;20036;-84
2022/01/10 08:59:35;;;;;;;72.10;59.20;;;;;;;-145.93;100.00;59239.47;4909084;29;20024;-83
2022/01/10 09:02:00;;;;;;;88.70;63.45;;;;;;;-145.93;100.00;59239.47;4902396;29;20402;-84
2022/01/10 09:04:26;;;;;;;113.17;66.53;;;;;;;-145.93;100.00;59239.47;4915396;29;20039;-82
2022/01/10 09:07:02;;;;;;;93.20;62.80;;;;;;;-145.93;100.00;59239.47;4915566;29;20047;-82
2022/01/10 09:09:28;;;;;;;83.82;62.15;;;;;;;-145.93;100.00;59239.47;4916743;29;20151;-84
2022/01/10 09:11:54;;;;;;;100.28;65.50;;;;;;;-145.93;100.00;59239.47;4951284;29;20027;-85
2022/01/10 09:14:20;;;;;;;112.55;66.68;;;;;;;-145.93;100.00;59239.47;4928882;29;20020;-84
2022/01/10 09:16:51;;;;;;;91.20;62.22;;;;;;;-145.93;100.00;59239.47;4927501;29;20031;-84
2022/01/10 09:19:16;;;;;;;86.35;61.10;;;;;;;-145.93;100.00;59239.47;4927582;29;20035;-84
2022/01/10 09:21:42;;;;;;;87.10;65.00;;;;;;;-145.93;100.00;59239.47;4927746;29;20028;-84
2022/01/10 09:24:07;;;;;;;99.00;66.53;;;;;;;-145.93;100.00;59239.47;4924014;29;20031;-83
2022/01/10 09:26:33;;;;;;;90.87;64.23;;;;;;;-145.93;100.00;59239.47;4910390;29;20031;-84
2022/01/10 09:28:59;;;;;;;101.70;65.67;;;;;;;-145.93;100.00;59239.47;4913283;29;20058;-83
2022/01/10 09:31:25;;;;;;;93.53;63.72;;;;;;;-145.93;100.00;59239.47;4921639;29;20060;-84
2022/01/10 09:33:55;;;;;;;92.68;62.90;;;;;;;-145.93;100.00;59239.47;4918228;29;20038;-83
2022/01/10 09:36:26;;;;;;;88.03;62.20;;;;;;;-145.93;100.00;59239.47;4926938;29;20032;-83
2022/01/10 09:38:52;;;;;;;92.43;62.42;;;;;;;-145.93;100.00;59239.47;4925000;29;20028;-84
2022/01/10 09:41:21;;;;;;;94.78;64.05;;;;;;;-145.93;100.00;59239.47;4925203;29;20020;-85
2022/01/10 09:43:52;;;;;;;95.95;63.20;;;;;;;-145.93;100.00;59239.47;4916964;29;20277;-83
2022/01/10 09:46:18;;;;;;;95.88;65.07;;;;;;;-145.93;100.00;59239.47;4943515;29;20037;-83
2022/01/10 09:48:43;;;;;;;88.95;61.97;;;;;;;-145.93;100.00;59239.47;4904537;29;20286;-82
2022/01/10 09:51:11;;;;;;;89.75;63.47;;;;;;;-145.93;100.00;59239.47;4914029;29;20039;-83
2022/01/10 09:53:39;;;;;;;83.95;60.25;;;;;;;-145.93;100.00;59239.47;4922564;29;20588;-84
2022/01/10 09:56:04;;;;;;;87.45;62.65;;;;;;;-145.93;100.00;59239.47;4931378;29;20031;-83
2022/01/10 09:58:30;;;;;;;88.97;63.87;;;;;;;-145.93;100.00;59239.47;4937495;29;20042;-84
2022/01/10 10:00:57;;;;;;;88.07;66.33;;;;;;;-145.93;100.00;59239.47;4897729;29;20032;-82
2022/01/10 10:03:23;;;;;;;88.55;62.63;;;;;;;-145.93;100.00;59239.47;4924208;29;20095;-83
2022/01/10 10:05:53;;;;;;;97.28;65.57;;;;;;;-145.93;100.00;59239.47;4912565;29;20055;-83
2022/01/10 10:08:24;;;;;;;89.85;62.40;;;;;;;-145.93;100.00;59239.47;4938609;29;20019;-83
2022/01/10 10:10:51;;;;;;;80.57;60.03;;;;;;;-145.93;100.00;59239.47;4938783;29;20087;-84
2022/01/10 10:13:17;;;;;;;79.72;61.15;;;;;;;-145.93;100.00;59239.47;4935364;29;20027;-82
2022/01/10 10:15:45;;;;;;;83.20;62.72;;;;;;;-145.93;100.00;59239.47;4930639;29;20063;-81
2022/01/10 10:18:17;;;;;;;80.07;62.22;;;;;;;-145.93;100.00;59239.47;4937716;29;20039;-83
2022/01/10 10:20:43;;;;;;;82.93;62.10;;;;;;;-145.93;100.00;59239.47;4931370;29;20041;-84
2022/01/10 10:23:15;;;;;;;79.53;61.13;;;;;;;-145.93;100.00;59239.47;4918833;29;20091;-83
2022/01/10 10:25:49;;;;;;;78.32;60.85;;;;;;;-145.93;100.00;59239.47;4934992;29;20027;-82
2022/01/10 10:28:14;;;;;;;78.68;62.97;;;;;;;-145.93;100.00;59239.47;4936166;29;20027;-82
2022/01/10 10:30:42;;;;;;;88.60;62.53;;;;;;;-145.93;100.00;59239.47;4935757;29;20027;-82
2022/01/10 10:33:21;;;;;;;85.07;62.42;;;;;;;-145.93;100.00;59239.47;4919143;29;20095;-83
2022/01/10 10:35:58;;;;;;;82.45;61.55;;;;;;;-145.93;100.00;59239.47;4934225;29;20035;-85
2022/01/10 10:38:27;;;;;;;90.97;64.32;;;;;;;-145.93;100.00;59239.47;4908290;29;20035;-83
2022/01/10 10:40:52;;;;;;;86.15;63.15;;;;;;;-145.93;100.00;59239.47;4932354;29;20114;-83
2022/01/10 10:43:18;;;;;;;79.67;61.20;;;;;;;-145.93;100.00;59239.47;4934516;29;20027;-82
2022/01/10 10:45:47;;;;;;;83.70;61.93;;;;;;;-145.93;100.00;59239.47;4912836;29;20094;-82
2022/01/10 10:48:12;;;;;;;83.10;62.92;;;;;;;-145.93;100.00;59239.47;4920251;29;20020;-81
2022/01/10 10:50:41;;;;;;;88.93;63.70;;;;;;;-145.93;100.00;59239.47;4911960;29;20031;-83
2022/01/10 10:53:09;;;;;;;88.43;63.53;;;;;;;-145.93;100.00;59239.47;4919928;29;20204;-81
2022/01/10 10:55:37;;;;;;;80.43;62.35;;;;;;;-145.93;100.00;59239.47;4937731;29;20071;-83
2022/01/10 10:58:03;;;;;;;84.22;63.70;;;;;;;-145.93;100.00;59239.47;4921808;29;20051;-80